createdAt,value
2022-08-27T07:10:14.617Z,98628.03
2022-08-27T07:13:24.846Z,98640.94
2022-08-27T07:16:34.735Z,98632.97
2022-08-27T07:19:45.429Z,98628.78
2022-08-27T07:22:58.558Z,98628.25
2022-08-27T07:26:10.836Z,98638.84
2022-08-27T07:29:20.402Z,98641.75
2022-08-27T07:32:31.314Z,98649.88
2022-08-27T07:35:41.742Z,98637.75
2022-08-27T07:38:59.192Z,98646.81
2022-08-27T07:42:23.263Z,98642.94
2022-08-27T07:45:32.882Z,98652.78
2022-08-27T07:48:42.415Z,98650.09
2022-08-27T07:51:53.321Z,98639.69
2022-08-27T07:55:02.916Z,98643.97
2022-08-27T07:58:18.091Z,98650.63
2022-08-27T08:01:30.560Z,98650.56
2022-08-27T08:04:40.173Z,98643.44
2022-08-27T08:07:51.959Z,98645.22
2022-08-27T08:11:03.688Z,98646.00
2022-08-27T08:14:14.892Z,98647.25
2022-08-27T08:17:25.282Z,98649.75
2022-08-27T08:20:56.555Z,98670.38
2022-08-27T08:24:04.702Z,98676.13
2022-08-27T08:27:14.273Z,98676.94
2022-08-27T08:30:25.140Z,98671.81
2022-08-27T08:33:35.729Z,98676.84
2022-08-27T08:36:51.068Z,98671.59
2022-08-27T08:40:05.413Z,98671.09
2022-08-27T08:43:28.119Z,98672.06
2022-08-27T08:46:42.791Z,98672.06
2022-08-27T08:49:58.134Z,98681.56
2022-08-27T08:53:13.195Z,98678.06
2022-08-27T08:56:29.215Z,98676.19
2022-08-27T08:59:41.136Z,98680.38
2022-08-27T09:02:55.417Z,98683.59
2022-08-27T09:06:09.445Z,98678.59
2022-08-27T09:09:23.358Z,98686.03
2022-08-27T09:12:33.484Z,98686.00
2022-08-27T09:15:43.178Z,98687.50
2022-08-27T09:18:55.998Z,98696.28
2022-08-27T09:22:14.877Z,98691.34
2022-08-27T09:25:29.270Z,98696.63
2022-08-27T09:28:53.221Z,98696.03
2022-08-27T09:32:08.343Z,98700.44
2022-08-27T09:35:19.176Z,98695.31
2022-08-27T09:38:33.972Z,98698.13
2022-08-27T09:41:46.297Z,98703.41
2022-08-27T09:44:55.988Z,98699.16
2022-08-27T09:48:08.900Z,98698.09
2022-08-27T09:51:23.768Z,98702.41
2022-08-27T09:54:41.632Z,98696.72
2022-08-27T09:57:51.345Z,98679.78
2022-08-27T10:01:03.589Z,98676.66
2022-08-27T10:04:16.850Z,98676.31
2022-08-27T10:07:38.074Z,98672.97
2022-08-27T10:10:55.004Z,98666.03
2022-08-27T10:14:12.979Z,98664.25
2022-08-27T10:17:32.297Z,98672.25
2022-08-27T10:21:05.380Z,98660.28
2022-08-27T10:24:24.361Z,98664.28
2022-08-27T10:27:44.164Z,98663.09
2022-08-27T10:31:08.210Z,98666.56
2022-08-27T10:34:32.042Z,98670.38
2022-08-27T10:37:52.130Z,98669.31
2022-08-27T10:41:16.627Z,98670.91
2022-08-27T10:44:40.385Z,98675.63
2022-08-27T10:47:59.335Z,98669.63
2022-08-27T10:51:16.453Z,98667.56
2022-08-27T10:54:32.020Z,98672.56
2022-08-27T10:58:03.766Z,98666.97
2022-08-27T11:01:21.877Z,98675.50
2022-08-27T11:04:36.309Z,98673.84
2022-08-27T11:07:50.538Z,98668.66
2022-08-27T11:11:51.467Z,98673.91
2022-08-27T11:14:42.875Z,98671.38
2022-08-27T11:17:58.431Z,98674.09
2022-08-27T11:21:14.356Z,98665.25
2022-08-27T11:24:35.123Z,98667.16
2022-08-27T11:27:47.794Z,98665.50
2022-08-27T11:31:04.089Z,98667.09
2022-08-27T11:34:19.370Z,98663.75
2022-08-27T11:37:41.557Z,98664.84
2022-08-27T11:41:03.717Z,98669.22
2022-08-27T11:44:15.377Z,98658.94
2022-08-27T11:47:28.839Z,98661.00
2022-08-27T11:50:38.395Z,98661.34
2022-08-27T11:53:57.485Z,98654.72
2022-08-27T11:57:15.919Z,98653.94
2022-08-27T12:00:33.751Z,98657.47
2022-08-27T12:03:44.825Z,98656.03
2022-08-27T12:07:03.139Z,98649.75
2022-08-27T12:10:25.115Z,98652.47
2022-08-27T12:13:42.204Z,98654.63
2022-08-27T12:16:59.188Z,98649.69
2022-08-27T12:20:25.036Z,98653.44
2022-08-27T12:23:46.989Z,98642.75
2022-08-27T12:27:00.907Z,98644.84
2022-08-27T12:30:22.155Z,98635.16
2022-08-27T12:33:36.106Z,98645.69
2022-08-27T12:36:49.489Z,98641.25
2022-08-27T12:40:03.521Z,98641.00
2022-08-27T12:43:19.028Z,98635.56
2022-08-27T12:46:29.775Z,98634.53
2022-08-27T12:49:46.287Z,98624.19
2022-08-27T12:53:15.552Z,98630.38
2022-08-27T12:56:38.050Z,98623.22
2022-08-27T13:00:00.236Z,98615.19
2022-08-27T13:03:23.155Z,98618.56
2022-08-27T13:06:35.230Z,98620.75
2022-08-27T13:09:46.109Z,98615.34
2022-08-27T13:13:05.077Z,98618.28
2022-08-27T13:16:15.213Z,98620.63
2022-08-27T13:19:27.862Z,98617.09
2022-08-27T13:22:40.644Z,98608.66
2022-08-27T13:25:57.070Z,98609.19
2022-08-27T13:29:09.048Z,98602.53
2022-08-27T13:32:21.193Z,98597.34
2022-08-27T13:35:31.682Z,98603.56
2022-08-27T13:38:49.902Z,98598.25
2022-08-27T13:42:03.557Z,98603.56
2022-08-27T13:45:13.557Z,98600.88
2022-08-27T13:48:24.329Z,98597.25
2022-08-27T13:51:38.601Z,98599.75
2022-08-27T13:54:51.315Z,98597.78
2022-08-27T13:58:13.886Z,98590.81
2022-08-27T14:01:27.877Z,98585.53
2022-08-27T14:04:39.421Z,98597.50
2022-08-27T14:07:52.106Z,98594.41
2022-08-27T14:11:04.693Z,98599.16
2022-08-27T14:14:18.752Z,98601.28
2022-08-27T14:17:35.838Z,98603.88
2022-08-27T14:20:45.457Z,98605.63
2022-08-27T14:23:55.830Z,98606.78
2022-08-27T14:27:10.601Z,98602.50
2022-08-27T14:30:29.248Z,98601.09
2022-08-27T14:33:40.152Z,98595.03
2022-08-27T14:36:54.187Z,98605.34
2022-08-27T14:40:05.674Z,98599.13
2022-08-27T14:43:16.002Z,98586.25
2022-08-27T14:46:30.686Z,98597.78
2022-08-27T14:49:43.906Z,98586.50
2022-08-27T14:52:53.455Z,98591.81
2022-08-27T14:56:03.079Z,98606.69
2022-08-27T14:59:12.846Z,98593.56
2022-08-27T15:02:24.000Z,98598.13
2022-08-27T15:05:33.546Z,98598.94
2022-08-27T15:08:44.822Z,98596.97
2022-08-27T15:11:56.970Z,98600.59
2022-08-27T15:15:10.016Z,98593.75
2022-08-27T15:18:20.900Z,98599.13
2022-08-27T15:21:31.724Z,98590.38
2022-08-27T15:24:43.912Z,98592.91
2022-08-27T15:27:54.810Z,98596.53
2022-08-27T15:31:04.450Z,98588.78
2022-08-27T15:34:15.452Z,98586.94
2022-08-27T15:37:25.655Z,98594.84
2022-08-27T15:40:36.404Z,98591.25
2022-08-27T15:43:46.158Z,98585.09
2022-08-27T15:46:56.067Z,98590.22
2022-08-27T15:50:08.396Z,98585.94
2022-08-27T15:53:22.443Z,98588.81
2022-08-27T15:56:34.586Z,98593.28
2022-08-27T15:59:44.803Z,98590.22
2022-08-27T16:02:54.867Z,98596.22
2022-08-27T16:06:06.438Z,98590.97
2022-08-27T16:09:16.065Z,98586.50
2022-08-27T16:12:26.946Z,98598.66
2022-08-27T16:15:40.394Z,98593.06
2022-08-27T16:18:50.381Z,98602.56
2022-08-27T16:22:01.120Z,98594.53
2022-08-27T16:25:18.413Z,98608.25
2022-08-27T16:28:28.407Z,98608.66
2022-08-27T16:31:38.172Z,98615.47
2022-08-27T16:34:52.564Z,98606.75
2022-08-27T16:38:07.134Z,98609.44
2022-08-27T16:41:20.165Z,98609.41
2022-08-27T16:44:29.785Z,98609.06
2022-08-27T16:48:01.417Z,98616.56
2022-08-27T16:51:16.807Z,98603.38
2022-08-27T16:54:28.346Z,98612.31
2022-08-27T16:57:38.411Z,98615.59
2022-08-27T17:00:53.413Z,98607.91
2022-08-27T17:04:10.179Z,98606.97
2022-08-27T17:07:25.845Z,98612.13
2022-08-27T17:10:41.981Z,98611.97
2022-08-27T17:13:53.166Z,98615.91
2022-08-27T17:17:02.684Z,98623.44
2022-08-27T17:20:12.861Z,98622.91
2022-08-27T17:23:33.106Z,98629.44
2022-08-27T17:26:44.083Z,98629.13
2022-08-27T17:29:55.647Z,98630.75
2022-08-27T17:33:05.487Z,98634.22
2022-08-27T17:36:15.888Z,98635.66
2022-08-27T17:39:25.390Z,98638.03
2022-08-27T17:42:37.266Z,98633.41
2022-08-27T17:45:47.031Z,98650.53
2022-08-27T17:48:56.692Z,98641.69
2022-08-27T17:52:10.579Z,98639.00
2022-08-27T17:55:20.307Z,98649.94
2022-08-27T17:58:31.416Z,98655.81
2022-08-27T18:01:41.553Z,98672.31
2022-08-27T18:04:51.791Z,98669.56
2022-08-27T18:08:01.463Z,98665.28
2022-08-27T18:11:12.625Z,98663.47
2022-08-27T18:14:23.516Z,98671.81
2022-08-27T18:17:33.129Z,98674.81
2022-08-27T18:20:42.791Z,98674.31
2022-08-27T18:23:52.798Z,98674.94
2022-08-27T18:27:02.481Z,98679.09
2022-08-27T18:30:14.481Z,98686.56
2022-08-27T18:33:24.047Z,98690.50
2022-08-27T18:36:33.532Z,98691.94
2022-08-27T18:39:43.107Z,98703.56
2022-08-27T18:42:53.190Z,98702.63
2022-08-27T18:46:10.493Z,98698.84
2022-08-27T18:49:22.078Z,98710.69
2022-08-27T18:52:31.905Z,98710.59
2022-08-27T18:55:41.550Z,98716.59
2022-08-27T18:58:51.430Z,98724.38
2022-08-27T19:02:02.691Z,98721.75
2022-08-27T19:05:14.506Z,98721.47
2022-08-27T19:08:27.381Z,98722.31
2022-08-27T19:11:37.019Z,98732.69
2022-08-27T19:14:48.062Z,98733.44
2022-08-27T19:18:03.743Z,98737.69
2022-08-27T19:21:13.648Z,98745.56
2022-08-27T19:24:23.811Z,98742.59
2022-08-27T19:27:33.906Z,98756.38
2022-08-27T19:30:44.182Z,98747.59
2022-08-27T19:33:55.456Z,98752.41
2022-08-27T19:37:07.741Z,98754.75
2022-08-27T19:40:18.530Z,98764.50
2022-08-27T19:43:28.283Z,98758.31
2022-08-27T19:46:40.455Z,98762.63
2022-08-27T19:49:51.292Z,98762.53
2022-08-27T19:53:01.284Z,98762.63
2022-08-27T19:56:13.091Z,98759.06
2022-08-27T19:59:25.801Z,98756.84
2022-08-27T20:02:35.357Z,98756.63
2022-08-27T20:05:48.900Z,98758.09
2022-08-27T20:08:59.219Z,98759.75
2022-08-27T20:12:09.246Z,98765.91
2022-08-27T20:15:20.895Z,98766.81
2022-08-27T20:18:34.968Z,98767.59
2022-08-27T20:21:46.170Z,98770.19
2022-08-27T20:24:55.834Z,98772.72
2022-08-27T20:28:34.968Z,98783.41
2022-08-27T20:31:36.967Z,98780.72
2022-08-27T20:34:46.553Z,98784.25
2022-08-27T20:37:57.432Z,98783.25
2022-08-27T20:41:07.818Z,98789.25
2022-08-27T20:44:17.497Z,98792.81
2022-08-27T20:47:29.043Z,98795.47
2022-08-27T20:50:39.050Z,98793.59
2022-08-27T20:53:49.924Z,98794.38
2022-08-27T20:56:59.622Z,98803.22
2022-08-27T21:00:19.957Z,98798.25
2022-08-27T21:03:29.886Z,98803.34
2022-08-27T21:06:39.621Z,98806.50
2022-08-27T21:09:56.190Z,98803.13
2022-08-27T21:13:10.892Z,98799.84
2022-08-27T21:16:22.031Z,98804.09
2022-08-27T21:19:31.781Z,98800.69
2022-08-27T21:22:42.337Z,98807.84
2022-08-27T21:25:53.067Z,98806.13
2022-08-27T21:29:03.014Z,98806.84
2022-08-27T21:32:12.781Z,98817.31
2022-08-27T21:35:22.465Z,98812.97
2022-08-27T21:38:32.314Z,98809.16
2022-08-27T21:41:43.032Z,98809.75
2022-08-27T21:44:52.599Z,98806.34
2022-08-27T21:48:04.220Z,98802.91
2022-08-27T21:51:24.386Z,98803.00
2022-08-27T21:54:36.523Z,98802.97
2022-08-27T21:57:47.879Z,98802.78
2022-08-27T22:00:57.443Z,98803.41
